Time;durP1;ratioP1;P1;durP2;ratioP2;P2;SDS_P1;SDS_P2;PMS_P1;PMS_P2;Temp;Humidity;BMP_temperature;BMP_pressure;BME280_temperature;BME280_humidity;BME280_pressure;Samples;Min_cycle;Max_cycle;Signal;HPM_P1;HPM_P2
2022/04/07 00:01:16;;;;;;;11.43;2.03;;;10.30;99.90;;;;;;5093513;28;20020;-39
2022/04/07 00:03:42;;;;;;;8.93;1.55;;;10.30;99.90;;;;;;5093460;28;20487;-40
2022/04/07 00:06:09;;;;;;;6.45;1.25;;;10.30;99.90;;;;;;5093779;28;20095;-40
2022/04/07 00:08:39;;;;;;;6.80;1.92;;;10.30;99.90;;;;;;5092367;28;20032;-39
2022/04/07 00:11:06;;;;;;;11.25;1.73;;;10.30;99.90;;;;;;5093259;28;20043;-39
2022/04/07 00:13:31;;;;;;;9.27;2.08;;;10.20;99.90;;;;;;5093559;28;20070;-38
2022/04/07 00:15:59;;;;;;;8.93;1.80;;;10.20;99.90;;;;;;5093357;28;20079;-38
2022/04/07 00:18:25;;;;;;;10.32;1.75;;;10.00;99.90;;;;;;5093658;28;20020;-39
2022/04/07 00:20:53;;;;;;;5.57;1.60;;;9.90;99.90;;;;;;5093430;28;20027;-37
2022/04/07 00:23:20;;;;;;;4.72;1.38;;;9.90;99.90;;;;;;5093640;28;20019;-38
2022/04/07 00:25:46;;;;;;;13.85;2.92;;;9.90;99.90;;;;;;5093581;28;20032;-38
2022/04/07 00:28:11;;;;;;;10.88;1.85;;;10.00;99.90;;;;;;5092953;28;20032;-38
2022/04/07 00:30:39;;;;;;;8.05;1.70;;;10.00;99.90;;;;;;5093202;28;20388;-42
2022/04/07 00:33:07;;;;;;;10.77;1.88;;;10.00;99.90;;;;;;5093757;28;20480;-40
2022/04/07 00:35:36;;;;;;;4.07;1.25;;;10.00;99.90;;;;;;5093773;28;20118;-39
2022/04/07 00:38:03;;;;;;;7.85;1.15;;;10.10;99.90;;;;;;5093062;28;20024;-39
2022/04/07 00:40:29;;;;;;;12.27;1.60;;;10.10;99.90;;;;;;5093366;28;20036;-37
2022/04/07 00:42:55;;;;;;;11.85;1.67;;;10.10;99.90;;;;;;5093660;28;20035;-37
2022/04/07 00:45:22;;;;;;;7.57;1.02;;;10.20;99.90;;;;;;5093456;28;20044;-36
2022/04/07 00:47:49;;;;;;;15.13;1.80;;;10.20;99.90;;;;;;5092951;28;20153;-37
2022/04/07 00:50:16;;;;;;;8.95;1.55;;;10.20;99.90;;;;;;5093247;28;20020;-37
2022/04/07 00:52:45;;;;;;;7.28;2.22;;;10.20;99.90;;;;;;5093283;28;20024;-38
2022/04/07 00:55:12;;;;;;;12.07;1.38;;;10.30;99.90;;;;;;5097260;28;20036;-57
2022/04/07 00:57:42;;;;;;;10.50;1.70;;;10.30;99.90;;;;;;5113166;28;20074;-39
2022/04/07 01:00:09;;;;;;;10.68;1.95;;;10.30;99.90;;;;;;5097649;28;20444;-38
2022/04/07 01:02:36;;;;;;;6.60;1.40;;;10.30;99.90;;;;;;5097071;28;20098;-38
2022/04/07 01:05:03;;;;;;;13.88;1.70;;;10.20;99.90;;;;;;5097540;28;20074;-39
2022/04/07 01:07:28;;;;;;;6.83;1.70;;;10.30;99.90;;;;;;5097319;28;20107;-40
2022/04/07 01:09:54;;;;;;;7.05;1.33;;;10.30;99.90;;;;;;5097245;28;20518;-38
2022/04/07 01:12:20;;;;;;;16.60;2.15;;;10.20;99.90;;;;;;5095434;28;20067;-39
2022/04/07 01:14:59;;;;;;;8.63;1.55;;;10.30;99.90;;;;;;5097170;28;20032;-39
2022/04/07 01:17:26;;;;;;;9.90;1.65;;;10.30;99.90;;;;;;5096728;28;20040;-40
2022/04/07 01:19:53;;;;;;;8.60;1.73;;;10.30;99.90;;;;;;5096741;28;20109;-37
2022/04/07 01:22:20;;;;;;;7.35;2.95;;;10.30;99.90;;;;;;5097240;28;20024;-39
2022/04/07 01:24:47;;;;;;;9.68;3.28;;;10.30;99.90;;;;;;5096874;28;20032;-41
2022/04/07 01:27:13;;;;;;;11.07;1.65;;;10.30;99.90;;;;;;5096502;28;20060;-45
2022/04/07 01:29:39;;;;;;;9.52;1.83;;;10.30;99.90;;;;;;5096166;28;20050;-38
2022/04/07 01:32:11;;;;;;;10.25;2.22;;;10.20;99.90;;;;;;5096172;28;20468;-37
2022/04/07 01:34:39;;;;;;;10.65;1.83;;;10.10;99.90;;;;;;5096673;28;20069;-38
2022/04/07 01:37:06;;;;;;;9.80;1.25;;;10.10;99.90;;;;;;5096641;28;20013;-39
2022/04/07 01:39:32;;;;;;;7.70;2.13;;;10.00;99.90;;;;;;5095070;28;20012;-39
2022/04/07 01:41:58;;;;;;;2.13;1.00;;;9.90;99.90;;;;;;5095263;28;20468;-38
2022/04/07 01:44:25;;;;;;;8.70;2.25;;;9.90;99.90;;;;;;5096751;28;20030;-38
2022/04/07 01:46:51;;;;;;;10.50;1.92;;;9.90;99.90;;;;;;5096179;28;20027;-36
2022/04/07 01:49:20;;;;;;;16.17;2.38;;;9.80;99.90;;;;;;5096335;28;20437;-39
2022/04/07 01:51:46;;;;;;;14.23;2.15;;;9.80;99.90;;;;;;5096034;28;20020;-39
2022/04/07 01:54:14;;;;;;;11.27;1.65;;;9.80;99.90;;;;;;5096183;28;20086;-37
2022/04/07 01:56:42;;;;;;;11.10;2.00;;;9.80;99.90;;;;;;5096311;28;20055;-38
2022/04/07 01:59:09;;;;;;;16.02;2.30;;;9.80;99.90;;;;;;5096473;28;20024;-38
2022/04/07 02:01:35;;;;;;;12.05;2.78;;;9.90;99.90;;;;;;5096144;28;20040;-39
2022/04/07 02:04:04;;;;;;;9.60;1.95;;;9.90;99.90;;;;;;5095811;28;20110;-39
2022/04/07 02:06:30;;;;;;;10.52;2.33;;;9.90;99.90;;;;;;5096090;28;20135;-39
2022/04/07 02:08:56;;;;;;;10.43;1.80;;;10.00;99.90;;;;;;5095808;28;20468;-39
2022/04/07 02:11:22;;;;;;;17.65;1.88;;;10.00;99.90;;;;;;5096018;28;20111;-37
2022/04/07 02:13:49;;;;;;;11.90;1.65;;;10.00;99.90;;;;;;5096154;28;20549;-39
2022/04/07 02:16:15;;;;;;;17.90;2.13;;;10.00;99.90;;;;;;5089662;28;20496;-39
2022/04/07 02:18:41;;;;;;;12.63;1.90;;;10.00;99.90;;;;;;5096205;28;20466;-44
2022/04/07 02:21:07;;;;;;;12.82;2.08;;;10.00;99.90;;;;;;5095561;28;20027;-39
2022/04/07 02:23:40;;;;;;;13.65;2.60;;;9.90;99.90;;;;;;5096077;28;20019;-39
2022/04/07 02:26:12;;;;;;;21.30;3.38;;;9.90;99.90;;;;;;5095610;28;20153;-39
2022/04/07 02:28:38;;;;;;;14.43;1.90;;;9.90;99.90;;;;;;5095534;28;20024;-39
2022/04/07 02:31:04;;;;;;;9.48;2.45;;;9.90;99.90;;;;;;5094352;28;20042;-37
2022/04/07 02:33:30;;;;;;;10.73;1.92;;;9.90;99.90;;;;;;5095442;28;20028;-38
2022/04/07 02:35:55;;;;;;;16.80;3.00;;;9.90;99.90;;;;;;5095669;28;20024;-38
2022/04/07 02:38:21;;;;;;;10.70;2.03;;;10.00;99.90;;;;;;5094800;28;20024;-38
2022/04/07 02:40:47;;;;;;;8.07;1.95;;;10.00;99.90;;;;;;5089906;28;20052;-39
2022/04/07 02:43:12;;;;;;;12.68;1.92;;;10.10;99.90;;;;;;5095435;28;20018;-39
2022/04/07 02:45:38;;;;;;;15.48;3.15;;;10.10;99.90;;;;;;5094358;28;20016;-40
2022/04/07 02:48:04;;;;;;;13.07;1.90;;;10.20;99.90;;;;;;5095289;28;20495;-39
2022/04/07 02:50:29;;;;;;;15.43;2.63;;;10.20;99.90;;;;;;5095051;28;20031;-38
2022/04/07 02:52:55;;;;;;;10.95;2.00;;;10.20;99.90;;;;;;5095094;28;20020;-38
2022/04/07 02:55:22;;;;;;;12.73;1.80;;;10.20;99.90;;;;;;5095047;28;20066;-39
2022/04/07 02:57:47;;;;;;;20.27;3.50;;;10.10;99.90;;;;;;5095091;28;20017;-40
2022/04/07 03:00:13;;;;;;;12.32;2.35;;;10.10;99.90;;;;;;5095093;28;20035;-39
2022/04/07 03:02:39;;;;;;;11.10;2.28;;;10.20;99.90;;;;;;5094655;28;20028;-39
2022/04/07 03:05:05;;;;;;;17.02;2.45;;;10.20;99.90;;;;;;5094834;28;20415;-40
2022/04/07 03:07:31;;;;;;;20.38;2.17;;;10.10;99.90;;;;;;5094679;28;20035;-39
2022/04/07 03:09:56;;;;;;;19.48;2.42;;;10.20;99.90;;;;;;5094840;28;20540;-37
2022/04/07 03:12:22;;;;;;;17.58;2.88;;;10.20;99.90;;;;;;5094878;28;20374;-40
2022/04/07 03:14:47;;;;;;;23.75;2.58;;;10.20;99.90;;;;;;5094721;28;20507;-39
2022/04/07 03:17:13;;;;;;;21.77;4.00;;;10.20;99.90;;;;;;5093616;28;20044;-40
2022/04/07 03:19:39;;;;;;;15.43;2.22;;;10.20;99.90;;;;;;5094744;28;20525;-40
2022/04/07 03:22:04;;;;;;;21.27;2.45;;;10.20;99.90;;;;;;5094571;28;20054;-39
2022/04/07 03:24:30;;;;;;;15.93;2.67;;;10.20;99.90;;;;;;5094568;28;20023;-39
2022/04/07 03:26:56;;;;;;;14.90;1.75;;;10.10;99.90;;;;;;5094378;28;20024;-38
2022/04/07 03:29:22;;;;;;;16.00;2.15;;;10.10;99.90;;;;;;5094742;28;20530;-39
2022/04/07 03:31:48;;;;;;;24.42;2.17;;;10.20;99.90;;;;;;5093759;28;20008;-40
2022/04/07 03:34:14;;;;;;;20.02;2.63;;;10.10;99.90;;;;;;5095742;28;20028;-41
2022/04/07 03:36:40;;;;;;;19.50;2.92;;;10.10;99.90;;;;;;5093875;28;20016;-41
2022/04/07 03:39:05;;;;;;;16.63;2.13;;;10.10;99.90;;;;;;5094576;28;20028;-39
2022/04/07 03:41:31;;;;;;;11.18;2.47;;;10.00;99.90;;;;;;5094236;28;20103;-40
2022/04/07 03:43:57;;;;;;;13.70;3.30;;;10.10;99.90;;;;;;5094029;28;20023;-38
2022/04/07 03:46:23;;;;;;;14.00;2.03;;;10.10;99.90;;;;;;5094097;28;20024;-40
2022/04/07 03:48:49;;;;;;;13.48;2.78;;;10.10;99.90;;;;;;5094385;28;20028;-44
2022/04/07 03:51:16;;;;;;;16.58;1.38;;;10.10;99.90;;;;;;5094027;28;20024;-39
2022/04/07 03:53:41;;;;;;;17.50;2.50;;;10.10;99.90;;;;;;5094232;28;20024;-42
2022/04/07 03:56:07;;;;;;;14.40;2.15;;;10.10;99.90;;;;;;5092997;28;20498;-40
2022/04/07 03:58:33;;;;;;;20.73;2.10;;;10.10;99.90;;;;;;5093975;28;20020;-50
2022/04/07 04:00:58;;;;;;;13.35;2.60;;;10.00;99.90;;;;;;5093791;28;20020;-38
2022/04/07 04:03:24;;;;;;;10.13;2.28;;;10.00;99.90;;;;;;5091753;28;20073;-40
2022/04/07 04:05:49;;;;;;;17.50;3.08;;;9.90;99.90;;;;;;5093807;28;20024;-39
2022/04/07 04:08:15;;;;;;;19.67;2.65;;;9.90;99.90;;;;;;5093931;28;20012;-38
2022/04/07 04:10:41;;;;;;;26.25;2.83;;;9.80;99.90;;;;;;5093703;28;20074;-39
2022/04/07 04:13:06;;;;;;;15.27;1.98;;;9.80;99.90;;;;;;5093518;28;20028;-39
2022/04/07 04:15:32;;;;;;;18.25;2.38;;;9.70;99.90;;;;;;5093671;28;20028;-38
2022/04/07 04:17:57;;;;;;;8.00;2.05;;;9.70;99.90;;;;;;5093440;28;20087;-39
2022/04/07 04:20:23;;;;;;;12.98;1.92;;;9.70;99.90;;;;;;5093418;28;20534;-39
2022/04/07 04:22:50;;;;;;;19.42;3.38;;;9.70;99.90;;;;;;5093573;28;20495;-39
2022/04/07 04:25:16;;;;;;;17.25;4.40;;;9.70;99.90;;;;;;5093483;28;20503;-39
2022/04/07 04:27:42;;;;;;;8.95;2.92;;;9.70;99.90;;;;;;5090234;28;20024;-40
2022/04/07 04:30:08;;;;;;;6.40;1.67;;;9.80;99.90;;;;;;5092252;28;20383;-39
2022/04/07 04:32:34;;;;;;;17.17;1.80;;;9.80;99.90;;;;;;5093344;28;20020;-38
2022/04/07 04:34:59;;;;;;;12.32;1.63;;;9.80;99.90;;;;;;5093182;28;20020;-39
2022/04/07 04:37:26;;;;;;;7.95;1.50;;;9.80;99.90;;;;;;5093171;28;20052;-39
2022/04/07 04:39:53;;;;;;;7.47;1.35;;;9.80;99.90;;;;;;5093557;28;20022;-39
2022/04/07 04:42:19;;;;;;;13.70;1.73;;;9.70;99.90;;;;;;5093352;28;20016;-39
2022/04/07 04:44:46;;;;;;;8.55;2.35;;;9.80;99.90;;;;;;5091811;28;20077;-38
2022/04/07 04:47:12;;;;;;;11.63;2.20;;;9.80;99.90;;;;;;5093115;28;20108;-38
2022/04/07 04:49:41;;;;;;;14.98;1.83;;;9.80;99.90;;;;;;5093232;28;20038;-41
2022/04/07 04:52:09;;;;;;;11.57;1.80;;;9.80;99.90;;;;;;5093108;28;20491;-39
2022/04/07 04:54:34;;;;;;;9.68;2.22;;;9.70;99.90;;;;;;5093168;28;20024;-47
2022/04/07 04:57:00;;;;;;;9.02;3.10;;;9.80;99.90;;;;;;5093205;28;20388;-40
2022/04/07 04:59:25;;;;;;;13.35;2.28;;;9.70;99.90;;;;;;5092914;28;20099;-40
2022/04/07 05:01:51;;;;;;;8.63;1.63;;;9.60;99.90;;;;;;5093065;28;20051;-39
2022/04/07 05:04:17;;;;;;;10.35;2.35;;;9.60;99.90;;;;;;5093161;28;20032;-40
2022/04/07 05:06:42;;;;;;;16.13;1.90;;;9.60;99.90;;;;;;5093077;28;20527;-39
2022/04/07 05:09:08;;;;;;;7.22;2.08;;;9.60;99.90;;;;;;5092715;28;20070;-38
2022/04/07 05:11:34;;;;;;;5.43;1.85;;;9.50;99.90;;;;;;5093117;28;20024;-39
2022/04/07 05:14:00;;;;;;;7.78;1.77;;;9.40;99.90;;;;;;5093205;28;20521;-40
2022/04/07 05:16:25;;;;;;;10.52;2.08;;;9.40;99.90;;;;;;5092794;28;20040;-42
2022/04/07 05:18:52;;;;;;;5.47;1.80;;;9.40;99.90;;;;;;5093057;28;20108;-39
2022/04/07 05:21:17;;;;;;;13.35;1.40;;;9.40;99.90;;;;;;5092536;28;20027;-39
2022/04/07 05:23:44;;;;;;;3.33;1.65;;;9.40;99.90;;;;;;5092908;28;20479;-40
2022/04/07 05:26:12;;;;;;;8.98;2.50;;;9.30;99.90;;;;;;5091652;28;20110;-38
2022/04/07 05:28:39;;;;;;;;;;;9.30;99.90;;;;;;5094026;28;20089;-39
2022/04/07 05:31:04;;;;;;;7.45;2.85;;;9.30;99.90;;;;;;5092484;28;19943;-39
2022/04/07 05:33:30;;;;;;;3.47;1.58;;;9.30;99.90;;;;;;5092654;28;20043;-39
2022/04/07 05:35:55;;;;;;;6.90;1.98;;;9.30;99.90;;;;;;5092856;28;20023;-40
2022/04/07 05:38:21;;;;;;;9.10;2.00;;;9.20;99.90;;;;;;5092791;28;20030;-40
2022/04/07 05:40:46;;;;;;;11.07;2.10;;;9.20;99.90;;;;;;5096011;28;20016;-39
2022/04/07 05:43:12;;;;;;;3.17;1.45;;;9.20;99.90;;;;;;5096499;28;20012;-38
2022/04/07 05:45:39;;;;;;;9.35;1.77;;;9.20;99.90;;;;;;5096281;28;20027;-36
2022/04/07 05:48:05;;;;;;;10.75;2.63;;;9.20;99.90;;;;;;5095962;28;20032;-39
2022/04/07 05:50:31;;;;;;;15.27;2.95;;;9.20;99.90;;;;;;5096642;28;20030;-38
2022/04/07 05:52:56;;;;;;;1.55;0.57;;;9.20;99.90;;;;;;5095311;28;20031;-39
2022/04/07 05:55:22;;;;;;;1.27;0.50;;;8.90;99.90;;;;;;5096268;28;20032;-38
2022/04/07 05:57:49;;;;;;;1.25;0.65;;;8.20;99.90;;;;;;5096226;28;20046;-38
2022/04/07 06:00:17;;;;;;;3.55;0.50;;;7.20;99.90;;;;;;5096557;28;20032;-41
2022/04/07 06:02:44;;;;;;;3.92;0.73;;;6.30;99.90;;;;;;5084546;28;20023;-39
2022/04/07 06:05:11;;;;;;;3.90;0.43;;;5.80;99.90;;;;;;5095879;28;20016;-39
2022/04/07 06:07:37;;;;;;;2.92;0.93;;;5.70;99.90;;;;;;5086864;28;20479;-39
2022/04/07 06:10:04;;;;;;;3.03;0.70;;;5.60;99.90;;;;;;5094575;28;20032;-41
2022/04/07 06:12:31;;;;;;;5.57;0.55;;;5.70;99.90;;;;;;5093945;28;20031;-39
2022/04/07 06:14:56;;;;;;;2.28;0.47;;;5.60;99.90;;;;;;5095142;28;20095;-38
2022/04/07 06:17:41;;;;;;;2.15;0.60;;;5.60;99.90;;;;;;5095372;28;20552;-38
2022/04/07 06:20:10;;;;;;;9.73;1.48;;;5.80;99.90;;;;;;5096214;28;20472;-38
2022/04/07 06:22:36;;;;;;;7.00;0.77;;;5.80;99.90;;;;;;5096149;28;20020;-39
2022/04/07 06:25:02;;;;;;;2.85;0.43;;;5.80;99.90;;;;;;5095468;28;20028;-40
2022/04/07 06:27:35;;;;;;;4.72;0.47;;;5.80;99.90;;;;;;5093947;28;20085;-39
2022/04/07 06:30:01;;;;;;;1.77;0.52;;;5.80;99.90;;;;;;5093477;28;20035;-40
2022/04/07 06:32:27;;;;;;;8.50;1.23;;;5.80;99.90;;;;;;5094660;28;20020;-40
2022/04/07 06:34:54;;;;;;;11.23;0.85;;;5.90;99.90;;;;;;5095121;28;20388;-39
2022/04/07 06:37:20;;;;;;;13.17;2.33;;;5.90;99.90;;;;;;5095417;28;20434;-39
2022/04/07 06:39:45;;;;;;;2.47;0.57;;;5.90;99.90;;;;;;5095554;28;20109;-39
2022/04/07 06:42:11;;;;;;;7.55;0.52;;;5.90;99.90;;;;;;5095395;28;20511;-41
2022/04/07 06:44:36;;;;;;;3.38;0.70;;;6.00;99.90;;;;;;5094110;28;20436;-40
2022/04/07 06:47:02;;;;;;;6.55;0.40;;;6.10;99.90;;;;;;5095121;28;20047;-39
2022/04/07 06:49:28;;;;;;;6.07;0.75;;;6.10;99.90;;;;;;5095363;28;20054;-39
2022/04/07 06:51:53;;;;;;;2.20;0.50;;;6.10;99.90;;;;;;5094170;28;20031;-39
2022/04/07 06:54:19;;;;;;;7.28;0.77;;;6.20;99.90;;;;;;5095024;28;20510;-41
2022/04/07 06:56:44;;;;;;;4.45;0.57;;;6.30;99.90;;;;;;5094867;28;20537;-51
2022/04/07 06:59:10;;;;;;;4.32;0.77;;;6.30;99.90;;;;;;5092770;28;20054;-49
2022/04/07 07:01:36;;;;;;;7.40;0.90;;;6.20;99.90;;;;;;5094752;28;20487;-40
2022/04/07 07:04:01;;;;;;;4.75;0.55;;;6.30;99.90;;;;;;5092695;28;20499;-40
2022/04/07 07:06:27;;;;;;;7.13;0.75;;;6.30;99.90;;;;;;5093385;28;20034;-38
2022/04/07 07:08:53;;;;;;;6.95;0.77;;;6.40;99.90;;;;;;5089985;28;20031;-37
2022/04/07 07:11:18;;;;;;;2.58;0.47;;;6.40;99.90;;;;;;5082583;28;20100;-38
2022/04/07 07:13:44;;;;;;;6.28;1.00;;;6.50;99.90;;;;;;5089414;28;20127;-39
2022/04/07 07:16:09;;;;;;;7.13;1.77;;;6.50;99.90;;;;;;5094577;28;20013;-38
2022/04/07 07:18:38;;;;;;;6.10;1.27;;;6.50;99.90;;;;;;5094666;28;20027;-36
2022/04/07 07:21:04;;;;;;;12.75;1.13;;;6.50;99.90;;;;;;5094587;28;20020;-38
2022/04/07 07:23:30;;;;;;;6.72;0.52;;;6.50;99.90;;;;;;5094688;28;20055;-36
2022/04/07 07:25:55;;;;;;;3.67;0.52;;;6.60;99.90;;;;;;5094678;28;20016;-38
2022/04/07 07:28:21;;;;;;;3.95;0.52;;;6.60;99.90;;;;;;5094053;28;20442;-37
2022/04/07 07:30:46;;;;;;;8.82;1.05;;;6.60;99.90;;;;;;5094197;28;20513;-37
2022/04/07 07:33:12;;;;;;;3.58;0.70;;;6.60;99.90;;;;;;5091680;28;20051;-38
2022/04/07 07:35:38;;;;;;;3.67;0.82;;;6.60;99.90;;;;;;5093996;28;20024;-37
2022/04/07 07:38:04;;;;;;;3.22;0.60;;;6.70;99.90;;;;;;5092699;28;20024;-37
2022/04/07 07:40:32;;;;;;;1.50;0.45;;;6.70;99.90;;;;;;5094472;28;20480;-50
2022/04/07 07:43:00;;;;;;;1.08;0.57;;;6.80;99.90;;;;;;5094312;28;20082;-40
2022/04/07 07:45:27;;;;;;;2.45;0.57;;;6.90;99.90;;;;;;5093783;28;20055;-36
2022/04/07 07:47:54;;;;;;;5.15;0.50;;;6.80;99.90;;;;;;5109498;28;20464;-38
2022/04/07 07:50:20;;;;;;;4.55;0.50;;;6.90;99.90;;;;;;5093803;28;20035;-38
2022/04/07 07:52:46;;;;;;;6.55;1.17;;;6.90;99.90;;;;;;5092074;28;20025;-39
2022/04/07 07:55:12;;;;;;;3.28;0.38;;;6.90;99.90;;;;;;5092908;28;20038;-39
2022/04/07 07:57:37;;;;;;;6.00;0.63;;;7.00;99.90;;;;;;5089740;28;20020;-38
2022/04/07 08:00:07;;;;;;;7.40;0.50;;;7.00;99.90;;;;;;5091326;28;20024;-38
2022/04/07 08:02:34;;;;;;;10.27;0.43;;;7.10;99.90;;;;;;5091103;28;20024;-36
2022/04/07 08:05:00;;;;;;;4.05;0.63;;;7.10;99.90;;;;;;5091892;28;20024;-39
2022/04/07 08:07:27;;;;;;;0.47;0.30;;;7.20;99.90;;;;;;5082802;28;20521;-38
2022/04/07 08:09:55;;;;;;;6.40;1.30;;;7.30;99.90;;;;;;5094007;28;20505;-37
2022/04/07 08:12:21;;;;;;;1.42;0.35;;;7.50;99.90;;;;;;5093643;28;20016;-40
2022/04/07 08:14:46;;;;;;;2.42;1.45;;;7.70;99.90;;;;;;5093750;28;20077;-39
2022/04/07 08:17:12;;;;;;;0.82;0.35;;;7.90;99.90;;;;;;5093435;28;20123;-38
2022/04/07 08:19:40;;;;;;;3.35;0.45;;;8.10;99.90;;;;;;5093461;28;20024;-39
2022/04/07 08:22:05;;;;;;;6.28;0.70;;;8.20;99.90;;;;;;5092336;28;20124;-37
2022/04/07 08:24:31;;;;;;;3.38;0.52;;;8.40;99.90;;;;;;5093458;28;20479;-38
2022/04/07 08:26:57;;;;;;;3.70;0.32;;;8.60;99.90;;;;;;5092135;28;20039;-38
2022/04/07 08:29:22;;;;;;;4.55;0.98;;;8.70;99.90;;;;;;5092734;28;20020;-42
2022/04/07 08:31:51;;;;;;;1.63;0.60;;;8.80;99.90;;;;;;5093430;28;20547;-39
2022/04/07 08:34:18;;;;;;;9.48;0.65;;;8.90;99.90;;;;;;5093224;28;20028;-39
2022/04/07 08:36:43;;;;;;;2.30;0.80;;;9.10;99.90;;;;;;5090772;28;20017;-39
2022/04/07 08:39:09;;;;;;;2.50;0.70;;;9.20;99.90;;;;;;5091070;28;20491;-38
2022/04/07 08:41:35;;;;;;;4.55;0.47;;;9.30;99.90;;;;;;5092401;28;20520;-38
2022/04/07 08:44:01;;;;;;;11.70;1.02;;;9.40;99.90;;;;;;5107822;28;20095;-39
2022/04/07 08:46:28;;;;;;;1.98;0.50;;;9.60;99.90;;;;;;5078111;28;20035;-39
2022/04/07 08:48:56;;;;;;;4.63;1.55;;;9.60;99.90;;;;;;5086451;28;20553;-41
2022/04/07 08:51:25;;;;;;;3.85;0.55;;;9.60;99.90;;;;;;5092208;28;20509;-37
2022/04/07 08:53:50;;;;;;;3.47;0.85;;;9.50;99.90;;;;;;5092294;28;20023;-45
2022/04/07 08:56:16;;;;;;;8.57;1.00;;;9.60;99.90;;;;;;5093034;28;20020;-38
2022/04/07 08:58:42;;;;;;;7.53;0.93;;;9.70;99.90;;;;;;5091130;28;20016;-39
2022/04/07 09:01:07;;;;;;;9.95;1.35;;;9.90;99.90;;;;;;5087239;28;20027;-37
2022/04/07 09:03:33;;;;;;;6.88;0.93;;;10.00;99.90;;;;;;5090715;28;20056;-38
2022/04/07 09:06:01;;;;;;;5.63;1.00;;;9.90;99.90;;;;;;5090893;28;20020;-38
2022/04/07 09:08:36;;;;;;;;;;;9.90;99.90;;;;;;5091338;28;20368;-38
2022/04/07 09:11:06;;;;;;;7.80;1.42;;;9.90;99.90;;;;;;5090879;28;19908;-36
2022/04/07 09:13:34;;;;;;;10.00;1.02;;;9.90;99.90;;;;;;5081733;28;20016;-39
2022/04/07 09:16:02;;;;;;;6.35;1.10;;;9.80;99.90;;;;;;5093904;28;20095;-37
2022/04/07 09:18:32;;;;;;;6.57;1.70;;;9.80;99.90;;;;;;5094473;28;20560;-38
2022/04/07 09:20:58;;;;;;;6.93;0.82;;;10.00;99.90;;;;;;5096497;28;20046;-38
2022/04/07 09:23:23;;;;;;;5.90;0.90;;;10.20;99.90;;;;;;5092420;28;20100;-43
2022/04/07 09:25:50;;;;;;;3.13;1.17;;;10.60;99.90;;;;;;5089824;28;20032;-37
2022/04/07 09:28:34;;;;;;;4.63;0.60;;;10.80;99.90;;;;;;5090404;28;20471;-38
2022/04/07 09:31:00;;;;;;;7.03;1.45;;;10.80;99.90;;;;;;5095459;28;20285;-38
2022/04/07 09:33:28;;;;;;;8.20;0.90;;;10.60;99.90;;;;;;5097009;28;20066;-38
2022/04/07 09:36:03;;;;;;;7.60;1.75;;;10.70;99.90;;;;;;5096700;28;20541;-38
2022/04/07 09:38:32;;;;;;;7.80;1.15;;;11.00;99.90;;;;;;5097083;28;20460;-39
2022/04/07 09:41:12;;;;;;;17.25;1.35;;;11.00;99.90;;;;;;5096431;28;20540;-38
2022/04/07 09:43:57;;;;;;;9.50;1.92;;;11.00;99.90;;;;;;5096796;28;20472;-38
2022/04/07 09:46:23;;;;;;;10.80;1.45;;;11.00;99.90;;;;;;5096465;28;20228;-39
2022/04/07 09:49:09;;;;;;;8.45;0.93;;;11.00;99.90;;;;;;5096520;28;20028;-39
2022/04/07 09:51:40;;;;;;;8.95;1.48;;;10.90;99.90;;;;;;5096756;28;20020;-39
2022/04/07 09:54:11;;;;;;;9.57;1.65;;;10.80;99.90;;;;;;5096624;28;20364;-39
2022/04/07 09:56:37;;;;;;;6.32;0.90;;;10.60;99.90;;;;;;5095190;28;20384;-37
2022/04/07 09:59:05;;;;;;;8.52;1.45;;;10.50;99.90;;;;;;5095100;28;20028;-37
2022/04/07 10:01:33;;;;;;;7.57;1.27;;;10.50;99.90;;;;;;5086875;28;20414;-37
2022/04/07 10:03:58;;;;;;;8.10;1.27;;;10.50;99.90;;;;;;5085747;28;20039;-38
2022/04/07 10:06:25;;;;;;;4.22;1.38;;;10.40;99.90;;;;;;5087846;28;20028;-37
2022/04/07 10:08:51;;;;;;;7.73;1.40;;;10.40;99.90;;;;;;5087137;28;20032;-37
2022/04/07 10:11:17;;;;;;;6.38;0.98;;;10.30;99.90;;;;;;5087520;28;20101;-38
2022/04/07 10:13:45;;;;;;;3.03;1.15;;;10.30;99.90;;;;;;5089115;28;20056;-37
2022/04/07 10:16:14;;;;;;;8.63;1.83;;;10.30;99.90;;;;;;5087211;28;20492;-37
2022/04/07 10:18:55;;;;;;;3.70;1.10;;;10.10;99.90;;;;;;5087891;28;20020;-38
2022/04/07 10:21:39;;;;;;;8.07;1.45;;;10.10;99.90;;;;;;5088308;28;20380;-38
2022/04/07 10:24:16;;;;;;;8.43;1.42;;;10.10;99.90;;;;;;5088207;28;20491;-34
2022/04/07 10:26:45;;;;;;;10.30;1.42;;;10.10;99.90;;;;;;5087322;28;20020;-37
2022/04/07 10:29:24;;;;;;;4.82;1.55;;;10.10;99.90;;;;;;5093832;28;20092;-38
2022/04/07 10:32:11;;;;;;;7.40;1.58;;;10.00;99.90;;;;;;5094863;28;20099;-45
2022/04/07 10:34:52;;;;;;;11.23;1.67;;;10.00;99.90;;;;;;5095230;28;20024;-37
2022/04/07 10:37:28;;;;;;;12.50;1.58;;;9.90;99.90;;;;;;5094290;28;20028;-38
2022/04/07 10:39:54;;;;;;;13.55;2.47;;;9.80;99.90;;;;;;5095491;28;20440;-38
2022/04/07 10:43:00;;;;;;;7.43;1.55;;;9.80;99.90;;;;;;5095539;28;20468;-38
2022/04/07 10:45:36;;;;;;;9.98;1.60;;;9.80;99.90;;;;;;5084412;28;20036;-38
2022/04/07 10:48:25;;;;;;;13.50;1.70;;;9.80;99.90;;;;;;5095265;28;20035;-39
2022/04/07 10:50:52;;;;;;;14.13;1.52;;;9.80;99.90;;;;;;5111422;28;20111;-39
2022/04/07 10:53:27;;;;;;;7.80;1.40;;;9.80;99.90;;;;;;5101706;28;20024;-38
2022/04/07 10:55:54;;;;;;;8.98;1.55;;;9.90;99.90;;;;;;5095370;28;20055;-39
2022/04/07 10:58:20;;;;;;;9.43;1.13;;;10.00;99.90;;;;;;5095203;28;20525;-38
2022/04/07 11:00:46;;;;;;;16.10;2.92;;;10.10;99.90;;;;;;5095344;28;20254;-52
2022/04/07 11:03:15;;;;;;;10.18;1.65;;;10.20;99.90;;;;;;5095078;28;20484;-39
2022/04/07 11:05:58;;;;;;;8.95;2.20;;;10.40;99.90;;;;;;5094945;28;20030;-39
2022/04/07 11:08:24;;;;;;;13.13;1.10;;;10.60;99.90;;;;;;5094641;28;20035;-39
2022/04/07 11:10:52;;;;;;;15.45;1.58;;;10.70;99.90;;;;;;5093511;28;20456;-37
2022/04/07 11:13:38;;;;;;;14.80;1.80;;;10.70;99.90;;;;;;5093852;28;20020;-39
2022/04/07 11:16:12;;;;;;;11.35;1.83;;;10.70;99.90;;;;;;5094330;28;20036;-39
2022/04/07 11:19:08;;;;;;;14.15;2.40;;;10.80;99.90;;;;;;5093921;28;20541;-38
2022/04/07 11:21:45;;;;;;;14.73;2.22;;;10.90;99.90;;;;;;5090430;28;20377;-38
2022/04/07 11:24:22;;;;;;;22.03;3.37;;;11.00;99.90;;;;;;5093567;28;20024;-39
2022/04/07 11:26:47;;;;;;;11.52;2.35;;;11.10;99.90;;;;;;5088740;28;20030;-38
2022/04/07 11:29:13;;;;;;;9.05;1.90;;;11.10;99.90;;;;;;5092456;28;20095;-38
2022/04/07 11:31:45;;;;;;;6.72;1.95;;;11.40;99.90;;;;;;5093098;28;20018;-38
2022/04/07 11:34:35;;;;;;;9.65;1.75;;;11.40;99.90;;;;;;5092472;28;20032;-37
2022/04/07 11:37:06;;;;;;;9.32;1.38;;;11.60;99.90;;;;;;5091931;28;20024;-35
2022/04/07 11:39:33;;;;;;;8.32;1.85;;;11.40;99.90;;;;;;5092977;28;20099;-38
2022/04/07 11:42:00;;;;;;;18.58;2.10;;;11.50;99.90;;;;;;5093434;28;20099;-38
2022/04/07 11:44:26;;;;;;;6.20;0.77;;;11.70;99.90;;;;;;5093211;28;20028;-38
2022/04/07 11:46:52;;;;;;;9.77;1.58;;;11.80;99.90;;;;;;5091853;28;20028;-37
2022/04/07 11:49:17;;;;;;;8.68;1.40;;;11.80;99.90;;;;;;5092762;28;20487;-39
2022/04/07 11:51:45;;;;;;;9.05;1.65;;;11.70;99.90;;;;;;5093533;28;20103;-38
2022/04/07 11:54:15;;;;;;;13.90;1.85;;;11.80;99.90;;;;;;5093203;28;20058;-37
2022/04/07 11:56:41;;;;;;;9.23;1.52;;;11.90;99.90;;;;;;5092198;28;20024;-39
2022/04/07 11:59:09;;;;;;;15.25;2.28;;;11.60;99.90;;;;;;5091321;28;20081;-45
2022/04/07 12:01:38;;;;;;;6.70;1.60;;;11.60;99.90;;;;;;5088192;28;20016;-38
2022/04/07 12:04:09;;;;;;;7.72;1.30;;;11.60;99.90;;;;;;5093285;28;20400;-38
2022/04/07 12:06:35;;;;;;;8.20;1.35;;;11.80;99.90;;;;;;5093700;28;20116;-39
2022/04/07 12:09:05;;;;;;;10.73;1.60;;;12.10;99.90;;;;;;5091136;28;20024;-33
2022/04/07 12:11:35;;;;;;;16.92;2.00;;;12.10;99.90;;;;;;5083091;28;20024;-39
2022/04/07 12:14:06;;;;;;;7.78;1.63;;;12.40;99.90;;;;;;5085054;28;20024;-38
2022/04/07 12:16:32;;;;;;;6.20;1.60;;;12.70;99.90;;;;;;5085255;28;20052;-38
2022/04/07 12:19:00;;;;;;;8.33;2.03;;;12.80;99.90;;;;;;5093251;28;20097;-40
2022/04/07 12:21:29;;;;;;;9.05;1.48;;;12.50;99.90;;;;;;5091966;28;20377;-40
2022/04/07 12:24:13;;;;;;;14.55;2.08;;;12.20;99.90;;;;;;5092793;28;20016;-37
2022/04/07 12:26:44;;;;;;;12.65;1.58;;;12.10;99.90;;;;;;5085202;28;20250;-39
2022/04/07 12:29:17;;;;;;;20.98;2.03;;;11.90;99.90;;;;;;5084119;28;20036;-38
2022/04/07 12:31:43;;;;;;;9.45;1.25;;;11.70;99.90;;;;;;5083338;28;20027;-37
2022/04/07 12:34:13;;;;;;;18.15;2.53;;;11.70;99.90;;;;;;5096320;28;20036;-36
2022/04/07 12:36:42;;;;;;;6.38;1.75;;;11.90;99.90;;;;;;5086529;28;20500;-43
2022/04/07 12:39:15;;;;;;;10.68;1.52;;;11.90;99.90;;;;;;5091750;28;20499;-41
2022/04/07 12:41:46;;;;;;;12.80;2.70;;;11.90;99.90;;;;;;5093030;28;20024;-40
2022/04/07 12:44:19;;;;;;;16.98;2.78;;;11.70;99.90;;;;;;5093014;28;20110;-37
2022/04/07 12:46:58;;;;;;;12.30;2.15;;;11.60;99.90;;;;;;5093488;28;20573;-39
2022/04/07 12:49:28;;;;;;;17.42;2.30;;;11.60;99.90;;;;;;5091299;28;20031;-47
2022/04/07 12:52:18;;;;;;;10.85;1.33;;;11.60;99.90;;;;;;5093293;28;20035;-38